Mount Holly, Ohio
Current Conditions -  °F | °C
As of 11:53 AM on Wednesday 26 Nov 2014 (Local Time) from KMGY Reporting Station
Overcast Overcast  
Wind Chill: 27°   Ceiling: 2600
Heat Index: 32°   Visibility: 7mi
Dew Point: 26°   Wind: 5mph
Humidity: 79%   Direction: 40°NE
Pressure: 30.09"   Gusts: NA
Location:  39.5416°N, 84.0704°W
Report Text: KMGY 261653Z AUTO 04004KT 7SM FEW015 OVC026 00/M03 A3009 RMK AO2 SLP200 T00001033
Loading
Personal Weather Stations






























Interactive Weather Map New forecast layout! Learn more

10-Day Weather Forecast

Advertisements
Track Severe Weather on mobile